Terminal Aerodrome Forecast
Issued by NWS

Home | Current Version | Previous Version | Text Only | Print | Product List | Glossary On
Versions: 1 2 3 4 5 6 7 8 9 10 11 12 13 14 15
632
FTUS41 KBTV 060530
TAFMPV
TAF
KMPV 060530Z 0606/0706 31008KT P6SM OVC015
      TEMPO 0606/0610 5SM -SN BR OVC008
     FM061000 32005KT P6SM OVC012
     FM061600 VRB03KT P6SM SCT020
     FM070100 VRB03KT P6SM SCT200=

USA.gov is the U.S. government's official web portal to all federal, state and local government web resources and services.